KMFD/MFD METAR and TAF weather

Enter ICAO airport designator
Station Type Date Time Source
KMFD METAR 2019/05/27 08:52 UTC NOAA

KMFD 270852Z AUTO 36006KT 10SM CLR 14/13 A3006 RMK AO2 SLP173 T01390128 55001


Station Type Date Time Source
KMFD Decoded METAR 2019/05/27 08:52 UTC NOAA

LAHM MUNICIPAL AIRPORT, OH, United States (KMFD) 40-49N 082-31W 395M
May 27, 2019 - 04:52 AM EDT / 2019.05.27 0852 UTC
Wind: from the N (360 degrees) at 7 MPH (6 KT):0
Visibility: 10 mile(s):0
Sky conditions: clear
Temperature: 57.0 F (13.9 C)
Dew Point: 55.0 F (12.8 C)
Relative Humidity: 93%
Pressure (altimeter): 30.06 in. Hg (1017 hPa)
Pressure tendency: 0.00 inches (0.1 hPa) lower than three hours ago
ob: KMFD 270852Z AUTO 36006KT 10SM CLR 14/13 A3006 RMK AO2 SLP173 T01390128 55001
cycle: 9

Station Type Date Time Source
KMFD TAF 2019/05/27 06:45 UTC NOAA

TAF KMFD 270542Z 2706/2806 02004KT 5SM BR BKN010
TEMPO 2707/2709 1/2SM FG BKN003
FM271000 00000KT P6SM SCT250
FM280200 13005KT P6SM BKN050
FM280500 16008KT 5SM -SHRA VCTS OVC040CB

Example: see airport list